sensor_id;sensor_type;location;lat;lon;timestamp;temperature;humidity
24664;DHT22;12791;50.992;13.788;2023-08-06T00:00:57;17.60;99.90
24664;DHT22;12791;50.992;13.788;2023-08-06T00:03:24;17.50;99.90
24664;DHT22;12791;50.992;13.788;2023-08-06T00:05:50;17.50;99.90
24664;DHT22;12791;50.992;13.788;2023-08-06T00:08:18;17.40;99.90
24664;DHT22;12791;50.992;13.788;2023-08-06T00:10:47;17.40;99.90
24664;DHT22;12791;50.992;13.788;2023-08-06T00:13:14;17.30;99.90
24664;DHT22;12791;50.992;13.788;2023-08-06T00:15:41;17.30;99.90
24664;DHT22;12791;50.992;13.788;2023-08-06T00:18:08;17.30;99.90
24664;DHT22;12791;50.992;13.788;2023-08-06T00:20:34;17.30;99.90
24664;DHT22;12791;50.992;13.788;2023-08-06T00:23:01;17.30;99.90
24664;DHT22;12791;50.992;13.788;2023-08-06T00:25:29;17.30;99.90
24664;DHT22;12791;50.992;13.788;2023-08-06T00:27:56;17.30;99.90
24664;DHT22;12791;50.992;13.788;2023-08-06T00:30:22;17.40;99.90
24664;DHT22;12791;50.992;13.788;2023-08-06T00:32:49;17.30;99.90
24664;DHT22;12791;50.992;13.788;2023-08-06T00:35:16;17.30;99.90
24664;DHT22;12791;50.992;13.788;2023-08-06T00:37:42;17.30;99.90
24664;DHT22;12791;50.992;13.788;2023-08-06T00:40:09;17.30;99.90
24664;DHT22;12791;50.992;13.788;2023-08-06T00:42:37;17.30;99.90
24664;DHT22;12791;50.992;13.788;2023-08-06T00:45:04;17.30;99.90
24664;DHT22;12791;50.992;13.788;2023-08-06T00:47:31;17.30;99.90
24664;DHT22;12791;50.992;13.788;2023-08-06T00:49:58;17.20;99.90
24664;DHT22;12791;50.992;13.788;2023-08-06T00:52:25;17.20;99.90
24664;DHT22;12791;50.992;13.788;2023-08-06T00:54:52;17.30;99.90
24664;DHT22;12791;50.992;13.788;2023-08-06T00:57:18;17.30;99.90
24664;DHT22;12791;50.992;13.788;2023-08-06T00:59:47;17.30;99.90
24664;DHT22;12791;50.992;13.788;2023-08-06T01:02:15;17.30;99.90
24664;DHT22;12791;50.992;13.788;2023-08-06T01:04:41;17.20;99.90
24664;DHT22;12791;50.992;13.788;2023-08-06T01:07:15;17.20;99.90
24664;DHT22;12791;50.992;13.788;2023-08-06T01:09:50;17.20;99.90
24664;DHT22;12791;50.992;13.788;2023-08-06T01:12:29;17.20;99.90
24664;DHT22;12791;50.992;13.788;2023-08-06T01:15:04;17.20;99.90
24664;DHT22;12791;50.992;13.788;2023-08-06T01:17:34;17.20;99.90
24664;DHT22;12791;50.992;13.788;2023-08-06T01:20:02;17.20;99.90
24664;DHT22;12791;50.992;13.788;2023-08-06T01:22:30;17.10;99.90
24664;DHT22;12791;50.992;13.788;2023-08-06T01:24:57;17.10;99.90
24664;DHT22;12791;50.992;13.788;2023-08-06T01:27:28;17.10;99.90
24664;DHT22;12791;50.992;13.788;2023-08-06T01:30:00;17.00;99.90
24664;DHT22;12791;50.992;13.788;2023-08-06T01:32:32;17.10;99.90
24664;DHT22;12791;50.992;13.788;2023-08-06T01:35:00;17.10;99.90
24664;DHT22;12791;50.992;13.788;2023-08-06T01:37:30;17.00;99.90
24664;DHT22;12791;50.992;13.788;2023-08-06T01:39:57;17.00;99.90
24664;DHT22;12791;50.992;13.788;2023-08-06T01:42:24;17.10;99.90
24664;DHT22;12791;50.992;13.788;2023-08-06T01:44:50;17.10;99.90
24664;DHT22;12791;50.992;13.788;2023-08-06T01:47:17;17.10;99.90
24664;DHT22;12791;50.992;13.788;2023-08-06T01:49:44;17.10;99.90
24664;DHT22;12791;50.992;13.788;2023-08-06T01:52:11;17.20;99.90
24664;DHT22;12791;50.992;13.788;2023-08-06T01:54:39;17.10;99.90
24664;DHT22;12791;50.992;13.788;2023-08-06T01:57:06;17.20;99.90
24664;DHT22;12791;50.992;13.788;2023-08-06T01:59:32;17.20;99.90
24664;DHT22;12791;50.992;13.788;2023-08-06T02:01:59;17.20;99.90
24664;DHT22;12791;50.992;13.788;2023-08-06T02:04:26;17.20;99.90
24664;DHT22;12791;50.992;13.788;2023-08-06T02:06:52;17.20;99.90
24664;DHT22;12791;50.992;13.788;2023-08-06T02:09:19;17.20;99.90
24664;DHT22;12791;50.992;13.788;2023-08-06T02:11:47;17.20;99.90
24664;DHT22;12791;50.992;13.788;2023-08-06T02:14:14;17.20;99.90
24664;DHT22;12791;50.992;13.788;2023-08-06T02:16:40;17.20;99.90
24664;DHT22;12791;50.992;13.788;2023-08-06T02:19:07;17.20;99.90
24664;DHT22;12791;50.992;13.788;2023-08-06T02:21:34;17.20;99.90
24664;DHT22;12791;50.992;13.788;2023-08-06T02:24:00;17.20;99.90
24664;DHT22;12791;50.992;13.788;2023-08-06T02:26:27;17.20;99.90
24664;DHT22;12791;50.992;13.788;2023-08-06T02:28:55;17.20;99.90
24664;DHT22;12791;50.992;13.788;2023-08-06T02:31:22;17.20;99.90
24664;DHT22;12791;50.992;13.788;2023-08-06T02:33:49;17.20;99.90
24664;DHT22;12791;50.992;13.788;2023-08-06T02:36:15;17.20;99.90
24664;DHT22;12791;50.992;13.788;2023-08-06T02:38:42;17.10;99.90
24664;DHT22;12791;50.992;13.788;2023-08-06T02:41:09;17.10;99.90
24664;DHT22;12791;50.992;13.788;2023-08-06T02:43:35;17.10;99.90
24664;DHT22;12791;50.992;13.788;2023-08-06T02:46:04;17.10;99.90
24664;DHT22;12791;50.992;13.788;2023-08-06T02:48:31;17.10;99.90
24664;DHT22;12791;50.992;13.788;2023-08-06T02:50:58;17.10;99.90
24664;DHT22;12791;50.992;13.788;2023-08-06T02:53:25;17.10;99.90
24664;DHT22;12791;50.992;13.788;2023-08-06T02:55:52;17.10;99.90
24664;DHT22;12791;50.992;13.788;2023-08-06T02:58:19;17.10;99.90
24664;DHT22;12791;50.992;13.788;2023-08-06T03:00:58;17.10;99.90
24664;DHT22;12791;50.992;13.788;2023-08-06T03:03:26;17.10;99.90
24664;DHT22;12791;50.992;13.788;2023-08-06T03:05:53;17.10;99.90
24664;DHT22;12791;50.992;13.788;2023-08-06T03:08:20;17.10;99.90
24664;DHT22;12791;50.992;13.788;2023-08-06T03:10:48;17.10;99.90
24664;DHT22;12791;50.992;13.788;2023-08-06T03:13:15;17.10;99.90
24664;DHT22;12791;50.992;13.788;2023-08-06T03:15:41;17.10;99.90
24664;DHT22;12791;50.992;13.788;2023-08-06T03:18:08;17.10;99.90
24664;DHT22;12791;50.992;13.788;2023-08-06T03:20:36;17.10;99.90
24664;DHT22;12791;50.992;13.788;2023-08-06T03:23:03;17.10;99.90
24664;DHT22;12791;50.992;13.788;2023-08-06T03:25:29;17.10;99.90
24664;DHT22;12791;50.992;13.788;2023-08-06T03:27:56;17.00;99.90
24664;DHT22;12791;50.992;13.788;2023-08-06T03:30:23;17.00;99.90
24664;DHT22;12791;50.992;13.788;2023-08-06T03:32:49;17.00;99.90
24664;DHT22;12791;50.992;13.788;2023-08-06T03:35:16;17.00;99.90
24664;DHT22;12791;50.992;13.788;2023-08-06T03:37:44;17.00;99.90
24664;DHT22;12791;50.992;13.788;2023-08-06T03:40:11;17.10;99.90
24664;DHT22;12791;50.992;13.788;2023-08-06T03:42:37;17.00;99.90
24664;DHT22;12791;50.992;13.788;2023-08-06T03:45:05;17.00;99.90
24664;DHT22;12791;50.992;13.788;2023-08-06T03:47:32;17.00;99.90
24664;DHT22;12791;50.992;13.788;2023-08-06T03:49:59;17.00;99.90
24664;DHT22;12791;50.992;13.788;2023-08-06T03:52:25;17.00;99.90
24664;DHT22;12791;50.992;13.788;2023-08-06T03:54:53;17.00;99.90
24664;DHT22;12791;50.992;13.788;2023-08-06T03:57:20;17.00;99.90
24664;DHT22;12791;50.992;13.788;2023-08-06T03:59:47;17.00;99.90
24664;DHT22;12791;50.992;13.788;2023-08-06T04:02:13;17.00;99.90
24664;DHT22;12791;50.992;13.788;2023-08-06T04:04:40;16.90;99.90
24664;DHT22;12791;50.992;13.788;2023-08-06T04:07:07;16.90;99.90
24664;DHT22;12791;50.992;13.788;2023-08-06T04:09:33;16.90;99.90
24664;DHT22;12791;50.992;13.788;2023-08-06T04:12:04;16.90;99.90
24664;DHT22;12791;50.992;13.788;2023-08-06T04:14:30;17.00;99.90
24664;DHT22;12791;50.992;13.788;2023-08-06T04:16:57;17.00;99.90
24664;DHT22;12791;50.992;13.788;2023-08-06T04:19:24;17.00;99.90
24664;DHT22;12791;50.992;13.788;2023-08-06T04:21:50;17.00;99.90
24664;DHT22;12791;50.992;13.788;2023-08-06T04:24:17;17.00;99.90
24664;DHT22;12791;50.992;13.788;2023-08-06T04:26:44;17.00;99.90
24664;DHT22;12791;50.992;13.788;2023-08-06T04:29:12;17.00;99.90
24664;DHT22;12791;50.992;13.788;2023-08-06T04:31:38;17.00;99.90
24664;DHT22;12791;50.992;13.788;2023-08-06T04:34:05;17.00;99.90
24664;DHT22;12791;50.992;13.788;2023-08-06T04:36:33;17.00;99.90
24664;DHT22;12791;50.992;13.788;2023-08-06T04:39:00;17.00;99.90
24664;DHT22;12791;50.992;13.788;2023-08-06T04:41:26;17.10;99.90
24664;DHT22;12791;50.992;13.788;2023-08-06T04:43:53;17.00;99.90
24664;DHT22;12791;50.992;13.788;2023-08-06T04:46:21;17.10;99.90
24664;DHT22;12791;50.992;13.788;2023-08-06T04:48:48;17.10;99.90
24664;DHT22;12791;50.992;13.788;2023-08-06T04:51:14;17.00;99.90
24664;DHT22;12791;50.992;13.788;2023-08-06T04:53:41;17.00;99.90
24664;DHT22;12791;50.992;13.788;2023-08-06T04:56:08;17.10;99.90
24664;DHT22;12791;50.992;13.788;2023-08-06T04:58:34;17.00;99.90
24664;DHT22;12791;50.992;13.788;2023-08-06T05:01:01;17.00;99.90
24664;DHT22;12791;50.992;13.788;2023-08-06T05:03:29;17.00;99.90
24664;DHT22;12791;50.992;13.788;2023-08-06T05:05:56;17.10;99.90
24664;DHT22;12791;50.992;13.788;2023-08-06T05:08:22;17.00;99.90
24664;DHT22;12791;50.992;13.788;2023-08-06T05:10:49;17.10;99.90
24664;DHT22;12791;50.992;13.788;2023-08-06T05:13:16;17.00;99.90
24664;DHT22;12791;50.992;13.788;2023-08-06T05:15:42;17.10;99.90
24664;DHT22;12791;50.992;13.788;2023-08-06T05:18:10;17.00;99.90
24664;DHT22;12791;50.992;13.788;2023-08-06T05:20:40;17.00;99.90
24664;DHT22;12791;50.992;13.788;2023-08-06T05:23:07;17.10;99.90
24664;DHT22;12791;50.992;13.788;2023-08-06T05:25:35;17.00;99.90
24664;DHT22;12791;50.992;13.788;2023-08-06T05:28:02;17.10;99.90
24664;DHT22;12791;50.992;13.788;2023-08-06T05:30:28;17.10;99.90
24664;DHT22;12791;50.992;13.788;2023-08-06T05:32:55;17.10;99.90
24664;DHT22;12791;50.992;13.788;2023-08-06T05:35:22;17.10;99.90
24664;DHT22;12791;50.992;13.788;2023-08-06T05:37:50;17.10;99.90
24664;DHT22;12791;50.992;13.788;2023-08-06T05:40:17;17.10;99.90
24664;DHT22;12791;50.992;13.788;2023-08-06T05:42:44;17.10;99.90
24664;DHT22;12791;50.992;13.788;2023-08-06T05:45:10;17.10;99.90
24664;DHT22;12791;50.992;13.788;2023-08-06T05:47:37;17.10;99.90
24664;DHT22;12791;50.992;13.788;2023-08-06T05:50:04;17.10;99.90
24664;DHT22;12791;50.992;13.788;2023-08-06T05:52:31;17.10;99.90
24664;DHT22;12791;50.992;13.788;2023-08-06T05:54:59;17.10;99.90
24664;DHT22;12791;50.992;13.788;2023-08-06T05:57:26;17.10;99.90
24664;DHT22;12791;50.992;13.788;2023-08-06T05:59:53;17.10;99.90
24664;DHT22;12791;50.992;13.788;2023-08-06T06:02:19;17.20;99.90
24664;DHT22;12791;50.992;13.788;2023-08-06T06:04:46;17.20;99.90
24664;DHT22;12791;50.992;13.788;2023-08-06T06:07:13;17.20;99.90
24664;DHT22;12791;50.992;13.788;2023-08-06T06:09:39;17.20;99.90
24664;DHT22;12791;50.992;13.788;2023-08-06T06:12:08;17.20;99.90
24664;DHT22;12791;50.992;13.788;2023-08-06T06:14:34;17.20;99.90
24664;DHT22;12791;50.992;13.788;2023-08-06T06:17:01;17.20;99.90
24664;DHT22;12791;50.992;13.788;2023-08-06T06:19:28;17.20;99.90
24664;DHT22;12791;50.992;13.788;2023-08-06T06:21:54;17.20;99.90
24664;DHT22;12791;50.992;13.788;2023-08-06T06:24:23;17.20;99.90
24664;DHT22;12791;50.992;13.788;2023-08-06T06:26:49;17.20;99.90
24664;DHT22;12791;50.992;13.788;2023-08-06T06:29:17;17.20;99.90
24664;DHT22;12791;50.992;13.788;2023-08-06T06:31:44;17.20;99.90
24664;DHT22;12791;50.992;13.788;2023-08-06T06:34:11;17.20;99.90
24664;DHT22;12791;50.992;13.788;2023-08-06T06:36:37;17.20;99.90
24664;DHT22;12791;50.992;13.788;2023-08-06T06:39:04;17.20;99.90
24664;DHT22;12791;50.992;13.788;2023-08-06T06:41:31;17.20;99.90
24664;DHT22;12791;50.992;13.788;2023-08-06T06:43:58;17.20;99.90
24664;DHT22;12791;50.992;13.788;2023-08-06T06:46:26;17.20;99.90
24664;DHT22;12791;50.992;13.788;2023-08-06T06:48:53;17.20;99.90
24664;DHT22;12791;50.992;13.788;2023-08-06T06:51:20;17.20;99.90
24664;DHT22;12791;50.992;13.788;2023-08-06T06:53:46;17.20;99.90
24664;DHT22;12791;50.992;13.788;2023-08-06T06:56:13;17.20;99.90
24664;DHT22;12791;50.992;13.788;2023-08-06T06:58:40;17.20;99.90
24664;DHT22;12791;50.992;13.788;2023-08-06T07:01:08;17.20;99.90
24664;DHT22;12791;50.992;13.788;2023-08-06T07:03:38;17.30;99.90
24664;DHT22;12791;50.992;13.788;2023-08-06T07:06:05;17.30;99.90
24664;DHT22;12791;50.992;13.788;2023-08-06T07:08:32;17.30;99.90
24664;DHT22;12791;50.992;13.788;2023-08-06T07:11:02;17.40;99.90
24664;DHT22;12791;50.992;13.788;2023-08-06T07:13:29;17.40;99.90
24664;DHT22;12791;50.992;13.788;2023-08-06T07:15:56;17.50;99.90
24664;DHT22;12791;50.992;13.788;2023-08-06T07:18:23;17.50;99.90
24664;DHT22;12791;50.992;13.788;2023-08-06T07:20:51;17.50;99.90
24664;DHT22;12791;50.992;13.788;2023-08-06T07:23:18;17.60;99.90
24664;DHT22;12791;50.992;13.788;2023-08-06T07:25:46;17.60;99.90
24664;DHT22;12791;50.992;13.788;2023-08-06T07:28:13;17.60;99.90
24664;DHT22;12791;50.992;13.788;2023-08-06T07:30:40;17.60;99.90
24664;DHT22;12791;50.992;13.788;2023-08-06T07:33:07;17.60;99.90
24664;DHT22;12791;50.992;13.788;2023-08-06T07:35:34;17.60;99.90
24664;DHT22;12791;50.992;13.788;2023-08-06T07:38:02;17.60;99.90
24664;DHT22;12791;50.992;13.788;2023-08-06T07:40:29;17.60;99.90
24664;DHT22;12791;50.992;13.788;2023-08-06T07:42:56;17.60;99.90
24664;DHT22;12791;50.992;13.788;2023-08-06T07:45:22;17.60;99.90
24664;DHT22;12791;50.992;13.788;2023-08-06T07:47:49;17.60;99.90
24664;DHT22;12791;50.992;13.788;2023-08-06T07:50:16;17.60;99.90
24664;DHT22;12791;50.992;13.788;2023-08-06T07:52:43;17.60;99.90
24664;DHT22;12791;50.992;13.788;2023-08-06T07:55:11;17.60;99.90
24664;DHT22;12791;50.992;13.788;2023-08-06T07:57:38;17.60;99.90
24664;DHT22;12791;50.992;13.788;2023-08-06T08:00:05;17.60;99.90
24664;DHT22;12791;50.992;13.788;2023-08-06T08:02:32;17.60;99.90
24664;DHT22;12791;50.992;13.788;2023-08-06T08:04:59;17.60;99.90
24664;DHT22;12791;50.992;13.788;2023-08-06T08:07:26;17.60;99.90
24664;DHT22;12791;50.992;13.788;2023-08-06T08:09:54;17.50;99.90
24664;DHT22;12791;50.992;13.788;2023-08-06T08:12:22;17.50;99.90
24664;DHT22;12791;50.992;13.788;2023-08-06T08:14:49;17.50;99.90
24664;DHT22;12791;50.992;13.788;2023-08-06T08:17:15;17.50;99.90
24664;DHT22;12791;50.992;13.788;2023-08-06T08:19:43;17.50;99.90
24664;DHT22;12791;50.992;13.788;2023-08-06T08:22:10;17.50;99.90
24664;DHT22;12791;50.992;13.788;2023-08-06T08:24:37;17.50;99.90
24664;DHT22;12791;50.992;13.788;2023-08-06T08:27:04;17.50;99.90
24664;DHT22;12791;50.992;13.788;2023-08-06T08:29:32;17.50;99.90
24664;DHT22;12791;50.992;13.788;2023-08-06T08:31:59;17.50;99.90
24664;DHT22;12791;50.992;13.788;2023-08-06T08:34:26;17.50;99.90
24664;DHT22;12791;50.992;13.788;2023-08-06T08:36:52;17.50;99.90
24664;DHT22;12791;50.992;13.788;2023-08-06T08:39:19;17.50;99.90
24664;DHT22;12791;50.992;13.788;2023-08-06T08:41:45;17.60;99.90
24664;DHT22;12791;50.992;13.788;2023-08-06T08:44:14;17.60;99.90
24664;DHT22;12791;50.992;13.788;2023-08-06T08:46:44;17.60;99.90
24664;DHT22;12791;50.992;13.788;2023-08-06T08:49:11;17.60;99.90
24664;DHT22;12791;50.992;13.788;2023-08-06T08:51:38;17.60;99.90
24664;DHT22;12791;50.992;13.788;2023-08-06T08:54:07;17.60;99.90
24664;DHT22;12791;50.992;13.788;2023-08-06T08:56:35;17.60;99.90
24664;DHT22;12791;50.992;13.788;2023-08-06T08:59:01;17.50;99.90
24664;DHT22;12791;50.992;13.788;2023-08-06T09:01:29;17.50;99.90
24664;DHT22;12791;50.992;13.788;2023-08-06T09:03:57;17.40;99.90
24664;DHT22;12791;50.992;13.788;2023-08-06T09:06:25;17.40;99.90
24664;DHT22;12791;50.992;13.788;2023-08-06T09:09:00;17.40;99.90
24664;DHT22;12791;50.992;13.788;2023-08-06T09:11:27;17.50;99.90
24664;DHT22;12791;50.992;13.788;2023-08-06T09:13:57;17.50;99.90
24664;DHT22;12791;50.992;13.788;2023-08-06T09:16:23;17.50;99.90
24664;DHT22;12791;50.992;13.788;2023-08-06T09:18:50;17.50;99.90
24664;DHT22;12791;50.992;13.788;2023-08-06T09:21:18;17.50;99.90
24664;DHT22;12791;50.992;13.788;2023-08-06T09:23:45;17.50;99.90
24664;DHT22;12791;50.992;13.788;2023-08-06T09:26:12;17.60;99.90
24664;DHT22;12791;50.992;13.788;2023-08-06T09:28:39;17.60;99.90
24664;DHT22;12791;50.992;13.788;2023-08-06T09:31:08;17.60;99.90
24664;DHT22;12791;50.992;13.788;2023-08-06T09:33:36;17.60;99.90
24664;DHT22;12791;50.992;13.788;2023-08-06T09:36:10;17.60;99.90
24664;DHT22;12791;50.992;13.788;2023-08-06T09:38:41;17.60;99.90
24664;DHT22;12791;50.992;13.788;2023-08-06T09:41:08;17.70;99.90
24664;DHT22;12791;50.992;13.788;2023-08-06T09:43:43;17.70;99.90
24664;DHT22;12791;50.992;13.788;2023-08-06T09:46:13;17.70;99.90
24664;DHT22;12791;50.992;13.788;2023-08-06T09:48:44;17.70;99.90
24664;DHT22;12791;50.992;13.788;2023-08-06T09:51:13;17.70;99.90
24664;DHT22;12791;50.992;13.788;2023-08-06T09:53:42;17.80;99.90
24664;DHT22;12791;50.992;13.788;2023-08-06T09:56:09;17.80;99.90
24664;DHT22;12791;50.992;13.788;2023-08-06T09:58:37;17.80;99.90
24664;DHT22;12791;50.992;13.788;2023-08-06T10:01:04;17.90;99.90
24664;DHT22;12791;50.992;13.788;2023-08-06T10:03:32;17.90;99.90
24664;DHT22;12791;50.992;13.788;2023-08-06T10:06:00;17.90;99.90
24664;DHT22;12791;50.992;13.788;2023-08-06T10:08:31;17.90;99.90
24664;DHT22;12791;50.992;13.788;2023-08-06T10:10:59;17.90;99.90
24664;DHT22;12791;50.992;13.788;2023-08-06T10:13:28;17.90;99.90
24664;DHT22;12791;50.992;13.788;2023-08-06T10:15:55;17.90;99.90
24664;DHT22;12791;50.992;13.788;2023-08-06T10:18:22;17.90;99.90
24664;DHT22;12791;50.992;13.788;2023-08-06T10:20:49;18.00;99.90
24664;DHT22;12791;50.992;13.788;2023-08-06T10:23:15;18.00;99.90
24664;DHT22;12791;50.992;13.788;2023-08-06T10:25:53;18.00;99.90
24664;DHT22;12791;50.992;13.788;2023-08-06T10:28:34;18.10;99.90
24664;DHT22;12791;50.992;13.788;2023-08-06T10:31:01;18.10;99.90
24664;DHT22;12791;50.992;13.788;2023-08-06T10:33:40;18.10;99.90
24664;DHT22;12791;50.992;13.788;2023-08-06T10:36:08;18.10;99.90
24664;DHT22;12791;50.992;13.788;2023-08-06T10:38:44;18.10;99.90
24664;DHT22;12791;50.992;13.788;2023-08-06T10:41:16;18.20;99.90
24664;DHT22;12791;50.992;13.788;2023-08-06T10:43:47;18.20;99.90
24664;DHT22;12791;50.992;13.788;2023-08-06T10:46:23;18.30;99.90
24664;DHT22;12791;50.992;13.788;2023-08-06T10:48:50;18.40;99.90
24664;DHT22;12791;50.992;13.788;2023-08-06T10:51:17;18.50;99.90
24664;DHT22;12791;50.992;13.788;2023-08-06T10:53:45;18.50;99.90
24664;DHT22;12791;50.992;13.788;2023-08-06T10:56:12;18.50;99.90
24664;DHT22;12791;50.992;13.788;2023-08-06T10:58:39;18.60;99.90
24664;DHT22;12791;50.992;13.788;2023-08-06T11:01:07;18.60;99.90
24664;DHT22;12791;50.992;13.788;2023-08-06T11:03:34;18.60;99.90
24664;DHT22;12791;50.992;13.788;2023-08-06T11:06:01;18.70;99.90
24664;DHT22;12791;50.992;13.788;2023-08-06T11:08:29;18.70;99.90
24664;DHT22;12791;50.992;13.788;2023-08-06T11:11:08;18.70;99.90
24664;DHT22;12791;50.992;13.788;2023-08-06T11:13:36;18.70;99.90
24664;DHT22;12791;50.992;13.788;2023-08-06T11:16:03;18.80;99.90
24664;DHT22;12791;50.992;13.788;2023-08-06T11:18:31;18.70;99.90
24664;DHT22;12791;50.992;13.788;2023-08-06T11:20:58;18.70;99.90
24664;DHT22;12791;50.992;13.788;2023-08-06T11:23:26;18.80;99.90
24664;DHT22;12791;50.992;13.788;2023-08-06T11:25:53;18.80;99.90
24664;DHT22;12791;50.992;13.788;2023-08-06T11:28:20;18.90;99.90
24664;DHT22;12791;50.992;13.788;2023-08-06T11:30:47;18.90;99.90
24664;DHT22;12791;50.992;13.788;2023-08-06T11:33:14;19.00;99.90
24664;DHT22;12791;50.992;13.788;2023-08-06T11:35:42;19.00;99.90
24664;DHT22;12791;50.992;13.788;2023-08-06T11:38:09;19.00;99.90
24664;DHT22;12791;50.992;13.788;2023-08-06T11:40:36;19.00;99.90
24664;DHT22;12791;50.992;13.788;2023-08-06T11:43:02;18.90;99.90
24664;DHT22;12791;50.992;13.788;2023-08-06T11:45:30;19.00;99.90
24664;DHT22;12791;50.992;13.788;2023-08-06T11:47:56;19.00;99.90
24664;DHT22;12791;50.992;13.788;2023-08-06T11:50:24;19.00;99.90
24664;DHT22;12791;50.992;13.788;2023-08-06T11:52:55;18.90;99.90
24664;DHT22;12791;50.992;13.788;2023-08-06T11:55:23;19.00;99.90
24664;DHT22;12791;50.992;13.788;2023-08-06T11:57:50;19.00;99.90
24664;DHT22;12791;50.992;13.788;2023-08-06T12:00:17;19.00;99.90
24664;DHT22;12791;50.992;13.788;2023-08-06T12:02:45;19.00;99.90
24664;DHT22;12791;50.992;13.788;2023-08-06T12:05:15;19.00;99.90
24664;DHT22;12791;50.992;13.788;2023-08-06T12:07:44;19.00;99.90
24664;DHT22;12791;50.992;13.788;2023-08-06T12:10:13;19.00;99.90
24664;DHT22;12791;50.992;13.788;2023-08-06T12:12:40;19.00;99.90
24664;DHT22;12791;50.992;13.788;2023-08-06T12:15:08;19.00;99.90
24664;DHT22;12791;50.992;13.788;2023-08-06T12:17:35;19.00;99.90
24664;DHT22;12791;50.992;13.788;2023-08-06T12:20:03;19.00;99.90
24664;DHT22;12791;50.992;13.788;2023-08-06T12:22:30;19.00;99.90
24664;DHT22;12791;50.992;13.788;2023-08-06T12:25:00;19.00;99.90
24664;DHT22;12791;50.992;13.788;2023-08-06T12:27:29;19.10;99.90
24664;DHT22;12791;50.992;13.788;2023-08-06T12:29:55;19.00;99.90
24664;DHT22;12791;50.992;13.788;2023-08-06T12:32:22;19.00;99.90
24664;DHT22;12791;50.992;13.788;2023-08-06T12:34:49;19.10;99.90
24664;DHT22;12791;50.992;13.788;2023-08-06T12:37:15;19.10;99.90
24664;DHT22;12791;50.992;13.788;2023-08-06T12:39:42;19.20;99.90
24664;DHT22;12791;50.992;13.788;2023-08-06T12:42:09;19.20;99.90
24664;DHT22;12791;50.992;13.788;2023-08-06T12:44:37;19.30;99.90
24664;DHT22;12791;50.992;13.788;2023-08-06T12:47:04;19.30;99.90
24664;DHT22;12791;50.992;13.788;2023-08-06T12:49:31;19.20;99.90
24664;DHT22;12791;50.992;13.788;2023-08-06T12:51:58;19.20;99.90
24664;DHT22;12791;50.992;13.788;2023-08-06T12:54:26;19.20;99.90
24664;DHT22;12791;50.992;13.788;2023-08-06T12:56:52;19.20;99.90
24664;DHT22;12791;50.992;13.788;2023-08-06T12:59:19;19.30;99.90
24664;DHT22;12791;50.992;13.788;2023-08-06T13:01:47;19.30;99.90
24664;DHT22;12791;50.992;13.788;2023-08-06T13:04:14;19.40;99.90
24664;DHT22;12791;50.992;13.788;2023-08-06T13:06:41;19.40;99.90
24664;DHT22;12791;50.992;13.788;2023-08-06T13:09:09;19.40;99.90
24664;DHT22;12791;50.992;13.788;2023-08-06T13:11:36;19.40;99.90
24664;DHT22;12791;50.992;13.788;2023-08-06T13:14:08;19.40;99.90
24664;DHT22;12791;50.992;13.788;2023-08-06T13:16:35;19.40;99.90
24664;DHT22;12791;50.992;13.788;2023-08-06T13:19:03;19.30;99.90
24664;DHT22;12791;50.992;13.788;2023-08-06T13:21:32;19.30;99.90
24664;DHT22;12791;50.992;13.788;2023-08-06T13:23:59;19.40;99.90
24664;DHT22;12791;50.992;13.788;2023-08-06T13:26:27;19.40;99.90
24664;DHT22;12791;50.992;13.788;2023-08-06T13:28:53;19.40;99.90
24664;DHT22;12791;50.992;13.788;2023-08-06T13:31:20;19.50;99.90
24664;DHT22;12791;50.992;13.788;2023-08-06T13:33:47;19.50;99.90
24664;DHT22;12791;50.992;13.788;2023-08-06T13:36:16;19.50;99.90
24664;DHT22;12791;50.992;13.788;2023-08-06T13:38:43;19.60;99.90
24664;DHT22;12791;50.992;13.788;2023-08-06T13:41:10;19.60;99.90
24664;DHT22;12791;50.992;13.788;2023-08-06T13:43:37;19.60;99.90
24664;DHT22;12791;50.992;13.788;2023-08-06T13:46:03;19.50;99.90
24664;DHT22;12791;50.992;13.788;2023-08-06T13:48:30;19.50;99.90
24664;DHT22;12791;50.992;13.788;2023-08-06T13:50:57;19.50;99.90
24664;DHT22;12791;50.992;13.788;2023-08-06T13:53:25;19.40;99.90
24664;DHT22;12791;50.992;13.788;2023-08-06T13:55:55;19.40;99.90
24664;DHT22;12791;50.992;13.788;2023-08-06T13:58:22;19.40;99.90
24664;DHT22;12791;50.992;13.788;2023-08-06T14:00:48;19.50;99.90
24664;DHT22;12791;50.992;13.788;2023-08-06T14:03:18;19.50;99.90
24664;DHT22;12791;50.992;13.788;2023-08-06T14:05:45;19.50;99.90
24664;DHT22;12791;50.992;13.788;2023-08-06T14:08:11;19.50;99.90
24664;DHT22;12791;50.992;13.788;2023-08-06T14:10:40;19.50;99.90
24664;DHT22;12791;50.992;13.788;2023-08-06T14:13:06;19.50;99.90
24664;DHT22;12791;50.992;13.788;2023-08-06T14:15:32;19.50;99.90
24664;DHT22;12791;50.992;13.788;2023-08-06T14:17:59;19.60;99.90
24664;DHT22;12791;50.992;13.788;2023-08-06T14:20:26;19.60;99.90
24664;DHT22;12791;50.992;13.788;2023-08-06T14:22:52;19.60;99.90
24664;DHT22;12791;50.992;13.788;2023-08-06T14:25:19;19.70;99.90
24664;DHT22;12791;50.992;13.788;2023-08-06T14:27:47;19.70;99.90
24664;DHT22;12791;50.992;13.788;2023-08-06T14:30:14;19.70;99.90
24664;DHT22;12791;50.992;13.788;2023-08-06T14:32:41;19.70;99.90
24664;DHT22;12791;50.992;13.788;2023-08-06T14:35:08;19.70;99.90
24664;DHT22;12791;50.992;13.788;2023-08-06T14:37:34;19.70;99.90
24664;DHT22;12791;50.992;13.788;2023-08-06T14:40:01;19.70;99.90
24664;DHT22;12791;50.992;13.788;2023-08-06T14:42:28;19.60;99.90
24664;DHT22;12791;50.992;13.788;2023-08-06T14:44:56;19.60;99.90
24664;DHT22;12791;50.992;13.788;2023-08-06T14:47:23;19.60;99.90
24664;DHT22;12791;50.992;13.788;2023-08-06T14:49:49;19.50;99.90
24664;DHT22;12791;50.992;13.788;2023-08-06T14:52:16;19.50;99.90
24664;DHT22;12791;50.992;13.788;2023-08-06T14:54:43;19.50;99.90
24664;DHT22;12791;50.992;13.788;2023-08-06T14:57:09;19.40;99.90
24664;DHT22;12791;50.992;13.788;2023-08-06T14:59:38;19.40;99.90
24664;DHT22;12791;50.992;13.788;2023-08-06T15:02:06;19.40;99.90
24664;DHT22;12791;50.992;13.788;2023-08-06T15:04:33;19.40;99.90
24664;DHT22;12791;50.992;13.788;2023-08-06T15:07:00;19.30;99.90
24664;DHT22;12791;50.992;13.788;2023-08-06T15:09:26;19.30;99.90
24664;DHT22;12791;50.992;13.788;2023-08-06T15:11:53;19.20;99.90
24664;DHT22;12791;50.992;13.788;2023-08-06T15:14:20;19.10;99.90
24664;DHT22;12791;50.992;13.788;2023-08-06T15:16:47;19.10;99.90